Stickney, Illinois
Current Conditions -  °F | °C
As of 3:53 AM on Monday 26 Jan 2015 (Local Time) from KMDW Reporting Station
Scattered Clouds Scattered Clouds  
Wind Chill: 14°   Ceiling: Unl
Heat Index: 22°   Visibility: 10mi
Dew Point: 15°   Wind: 6mph
Humidity: 75%   Direction: 20°NNE
Pressure: 29.97"   Gusts: NA
Location:  41.789°N, 87.7699°W
Report Text: KMDW 260953Z 02005KT 10SM SCT022 M06/M09 A2997 RMK AO2 SLP163 T10561094
Loading
Personal Weather Stations






























Interactive Weather Map New forecast layout! Learn more

10-Day Weather Forecast

Advertisements
Track Severe Weather on mobile